Stormwatcher's Retreat Logo




                  Temp     Hi    Low   Out    Dew  Wind  Wind   Wind    Hi    Hi   Wind   Heat    THW   THSW                Rain  Solar   Solar Hi Solar   UV    UV    Hi     Heat    Cool    In     In    In     In     In   In Air          Wind  Wind    ISS   Arc.
  Date    Time     Out   Temp   Temp   Hum    Pt. Speed   Dir    Run Speed   Dir  Chill  Index  Index  Index   Bar    Rain  Rate   Rad.  Energy    Rad.  Index  Dose   UV     D-D     D-D    Temp   Hum    Dew   Heat    EMC Density     ET   Samp   Tx   Recept  Int.
------------------------------------------------------------------------------------------------------------------------------------------------------------------------------------------------------------------------------------------------------------------------
 6/21/21 12:10a   56.2   56.2   56.1    98   55.6   6.0   ENE   1.00  14.0   ENE   55.0   56.5   55.3   52.9  29.909  0.00  0.00     0     0.00      0     0.0  0.00   0.0   0.061   0.000   72.0    58   56.4   71.7  10.67  .0735    0.000   201    7    100.0   10 
 6/21/21 12:20a   56.4   56.5   56.2    98   55.8   6.0     E   1.00  14.0    NE   55.3   56.7   55.6   53.2  29.907  0.00  0.00     0     0.00      0     0.0  0.00   0.0   0.060   0.000   71.9    58   56.3   71.6  10.67  .0735    0.000   201    7    100.0   10 
 6/21/21 12:30a   56.7   56.7   56.4    98   56.1   6.0     E   1.00  12.0     E   55.6   57.0   55.9   53.5  29.907  0.00  0.00     0     0.00      0     0.0  0.00   0.0   0.058   0.000   71.9    58   56.3   71.6  10.67  .0735    0.000   202    7    100.0   10 
 6/21/21 12:40a   56.8   56.8   56.6    98   56.2   7.0   ENE   1.17  16.0   ENE   55.4   57.1   55.7   53.3  29.907  0.00  0.00     0     0.00      0     0.0  0.00   0.0   0.057   0.000   71.9    58   56.3   71.6  10.67  .0735    0.000   200    7    100.0   10 
 6/21/21 12:50a   56.9   57.0   56.8    98   56.3   5.0   ENE   0.83  13.0   ENE   56.3   57.2   56.6   54.2  29.909  0.00  0.00     0     0.00      0     0.0  0.00   0.0   0.056   0.000   71.8    58   56.2   71.5  10.68  .0735    0.000   201    7    100.0   10 
 6/21/21  1:00a   57.1   57.1   56.9    98   56.5   5.0   ENE   0.83  11.0   ENE   56.5   57.4   56.8   54.4  29.907  0.00  0.00     0     0.00      0     0.0  0.00   0.0   0.055   0.000   71.8    58   56.2   71.5  10.68  .0735    0.000   202    7    100.0   10 
 6/21/21  1:10a   57.1   57.2   57.0    98   56.5   5.0   ENE   0.83  11.0    NE   56.5   57.4   56.8   54.4  29.907  0.00  0.00     0     0.00      0     0.0  0.00   0.0   0.055   0.000   71.8    58   56.2   71.5  10.68  .0735    0.000   202    7    100.0   10 
 6/21/21  1:20a   57.2   57.2   57.1    98   56.6   4.0   ENE   0.67   9.0   ENE   57.2   57.5   57.5   55.1  29.906  0.00  0.00     0     0.00      0     0.0  0.00   0.0   0.054   0.000   71.8    58   56.2   71.5  10.68  .0735    0.000   204    7    100.0   10 
 6/21/21  1:30a   57.2   57.2   57.2    98   56.6   4.0   ENE   0.67  10.0   ENE   57.2   57.5   57.5   55.1  29.904  0.00  0.00     0     0.00      0     0.0  0.00   0.0   0.054   0.000   71.7    58   56.1   71.3  10.68  .0735    0.000   204    7    100.0   10 
 6/21/21  1:40a   57.2   57.2   57.2    98   56.6   4.0   ENE   0.67   9.0   ENE   57.2   57.5   57.5   55.1  29.905  0.00  0.00     0     0.00      0     0.0  0.00   0.0   0.054   0.000   71.7    58   56.1   71.3  10.68  .0735    0.000   204    7    100.0   10 
 6/21/21  1:50a   57.0   57.2   57.0    98   56.4   3.0   ENE   0.50   9.0   ENE   57.0   57.3   57.3   54.9  29.908  0.00  0.00     0     0.00      0     0.0  0.00   0.0   0.056   0.000   71.7    58   56.1   71.3  10.68  .0735    0.000   204    7    100.0   10 
 6/21/21  2:00a   57.0   57.1   56.9    98   56.4   3.0   ENE   0.50   9.0   ENE   57.0   57.3   57.3   54.9  29.910  0.00  0.00     0     0.00      0     0.0  0.00   0.0   0.056   0.000   71.6    58   56.0   71.2  10.69  .0735    0.000   201    7    100.0   10 
 6/21/21  2:10a   56.6   57.1   56.6    98   56.0   3.0   ENE   0.50   7.0    NE   56.6   56.9   56.9   54.5  29.910  0.00  0.00     0     0.00      0     0.0  0.00   0.0   0.058   0.000   71.6    58   56.0   71.2  10.69  .0735    0.000   203    7    100.0   10 
 6/21/21  2:20a   56.5   56.7   56.5    98   55.9   2.0   ENE   0.33   9.0     E   56.5   56.8   56.8   54.4  29.910  0.00  0.00     0     0.00      0     0.0  0.00   0.0   0.059   0.000   71.6    58   56.0   71.2  10.69  .0735    0.000   201    7    100.0   10 
 6/21/21  2:30a   56.9   56.9   56.6    98   56.3   3.0   ENE   0.50   9.0   ENE   56.9   57.2   57.2   54.8  29.909  0.00  0.00     0     0.00      0     0.0  0.00   0.0   0.056   0.000   71.6    58   56.0   71.2  10.69  .0735    0.000   203    7    100.0   10 
 6/21/21  2:40a   57.1   57.1   56.9    98   56.5   3.0     E   0.50   9.0   ENE   57.1   57.4   57.4   55.0  29.910  0.00  0.00     0     0.00      0     0.0  0.00   0.0   0.055   0.000   71.5    58   55.9   71.0  10.69  .0736    0.000   203    7    100.0   10 
 6/21/21  2:50a   57.2   57.2   57.1    98   56.6   3.0     E   0.50   9.0   ENE   57.2   57.5   57.5   55.1  29.908  0.00  0.00     0     0.00      0     0.0  0.00   0.0   0.054   0.000   71.5    58   55.9   71.0  10.69  .0736    0.000   201    7    100.0   10 
 6/21/21  3:00a   55.8   57.2   55.8    97   55.0   2.0    NE   0.33   5.0   ENE   55.8   56.1   56.1   53.7  29.908  0.00  0.00     0     0.00      0     0.0  0.00   0.0   0.064   0.000   71.5    58   55.9   71.0  10.69  .0736    0.000   202    7    100.0   10 
 6/21/21  3:10a   55.2   55.9   55.1    98   54.6   3.0     E   0.50   5.0   ENE   55.2   55.5   55.5   53.1  29.906  0.00  0.00     0     0.00      0     0.0  0.00   0.0   0.068   0.000   71.4    58   55.9   70.9  10.69  .0736    0.000   203    7    100.0   10 
 6/21/21  3:20a   56.1   56.1   55.2    98   55.5   2.0     E   0.33   5.0     E   56.1   56.4   56.4   54.0  29.908  0.00  0.00     0     0.00      0     0.0  0.00   0.0   0.062   0.000   71.4    58   55.9   70.9  10.69  .0736    0.000   203    7    100.0   10 
 6/21/21  3:30a   55.2   56.2   55.2    97   54.4   2.0   ENE   0.33   4.0   ENE   55.2   55.5   55.5   53.1  29.908  0.00  0.00     0     0.00      0     0.0  0.00   0.0   0.068   0.000   71.4    58   55.9   70.9  10.69  .0736    0.000   205    7    100.0   10 
 6/21/21  3:40a   55.3   55.3   55.1    98   54.7   2.0   ENE   0.33   4.0   ENE   55.3   55.6   55.6   53.2  29.907  0.00  0.00     0     0.00      0     0.0  0.00   0.0   0.067   0.000   71.4    58   55.9   70.9  10.69  .0736    0.000   203    7    100.0   10 
 6/21/21  3:50a   54.0   55.3   54.0    97   53.2   3.0   ENE   0.50   5.0   NNE   54.0   54.3   54.3   51.8  29.905  0.00  0.00     0     0.00      0     0.0  0.00   0.0   0.076   0.000   71.4    58   55.9   70.9  10.69  .0736    0.000   204    7    100.0   10 
 6/21/21  4:00a   54.0   54.0   53.7    98   53.4   3.0   ENE   0.50   5.0   NNE   54.0   54.3   54.3   51.8  29.904  0.00  0.00     0     0.00      0     0.0  0.00   0.0   0.076   0.000   71.4    58   55.9   70.9  10.69  .0736    0.000   201    7    100.0   10 
 6/21/21  4:10a   54.7   54.7   54.0    98   54.1   3.0     E   0.50   6.0   ENE   54.7   55.0   55.0   52.6  29.904  0.00  0.00     0     0.00      0     0.0  0.00   0.0   0.072   0.000   71.3    58   55.8   70.7  10.70  .0736    0.000   205    7    100.0   10 
 6/21/21  4:20a   54.6   55.0   54.6    98   54.0   3.0   ENE   0.50   5.0   ENE   54.6   54.9   54.9   52.5  29.903  0.00  0.00     0     0.00      0     0.0  0.00   0.0   0.072   0.000   71.3    58   55.8   70.7  10.70  .0736    0.000   201    7    100.0   10 
 6/21/21  4:30a   54.8   54.8   54.5    98   54.2   3.0     E   0.50   6.0     E   54.8   55.1   55.1   52.7  29.900  0.00  0.00     0     0.00      0     0.0  0.00   0.0   0.071   0.000   71.3    58   55.8   70.7  10.70  .0736    0.000   202    7    100.0   10 
 6/21/21  4:40a   55.6   55.6   54.8    99   55.3   3.0     E   0.50   8.0   ENE   55.6   56.0   56.0   53.6  29.904  0.00  0.00     0     0.00      0     0.0  0.00   0.0   0.065   0.000   71.2    58   55.7   70.6  10.70  .0736    0.000   205    7    100.0   10 
 6/21/21  4:50a   56.0   56.0   55.6    98   55.4   2.0     E   0.33   6.0     E   56.0   56.3   56.3   53.9  29.909  0.00  0.00     0     0.00      0     0.0  0.00   0.0   0.063   0.000   71.2    58   55.7   70.6  10.70  .0736    0.000   202    7    100.0   10 
 6/21/21  5:00a   55.8   56.1   55.8    98   55.2   3.0   ENE   0.50   7.0     E   55.8   56.1   56.1   53.7  29.907  0.00  0.00     0     0.00      0     0.0  0.00   0.0   0.064   0.000   71.2    58   55.7   70.6  10.70  .0736    0.000   204    7    100.0   10 
 6/21/21  5:10a   55.6   55.9   55.5    98   55.0   3.0    NE   0.50   5.0    NE   55.6   55.9   55.9   53.5  29.908  0.00  0.00     0     0.00      0     0.0  0.00   0.0   0.065   0.000   71.2    58   55.7   70.6  10.70  .0736    0.000   201    7    100.0   10 
 6/21/21  5:20a   56.0   56.0   55.6    98   55.4   4.0   ENE   0.67   8.0     E   55.8   56.3   56.1   53.7  29.909  0.00  0.00     0     0.00      0     0.0  0.00   0.0   0.063   0.000   71.1    58   55.6   70.4  10.71  .0736    0.000   203    7    100.0   10 
 6/21/21  5:30a   56.0   56.1   55.9    98   55.4   3.0    NE   0.50   7.0    NE   56.0   56.3   56.3   53.9  29.910  0.00  0.00     0     0.00      0     0.0  0.00   0.0   0.063   0.000   71.1    58   55.6   70.4  10.71  .0736    0.000   201    7    100.0   10 
 6/21/21  5:40a   55.8   56.0   55.8    98   55.2   3.0   ENE   0.50   5.0   ENE   55.8   56.1   56.1   53.7  29.913  0.00  0.00     0     0.00      0     0.0  0.00   0.0   0.064   0.000   71.1    58   55.6   70.4  10.71  .0736    0.000   203    7    100.0   10 
 6/21/21  5:50a   55.7   55.8   55.7    98   55.1   2.0   ENE   0.33   5.0   ENE   55.7   56.0   56.0   53.7  29.916  0.00  0.00     3     0.04      5     0.0  0.00   0.0   0.065   0.000   71.0    58   55.5   70.3  10.71  .0737    0.000   202    7    100.0   10 
 6/21/21  6:00a   55.6   55.8   55.6    98   55.0   2.0   ENE   0.33   4.0   ENE   55.6   55.9   55.9   53.6  29.919  0.00  0.00     6     0.09      7     0.0  0.00   0.0   0.065   0.000   71.0    58   55.5   70.3  10.71  .0737    0.000   200    7    100.0   10 
 6/21/21  6:10a   55.1   55.6   55.1    98   54.5   2.0   ENE   0.33   4.0   ENE   55.1   55.4   55.4   53.2  29.919  0.00  0.00    10     0.14     11     0.0  0.00   0.0   0.069   0.000   71.0    58   55.5   70.3  10.71  .0737    0.000   202    7    100.0   10 
 6/21/21  6:20a   55.0   55.1   54.9    98   54.4   1.0   ENE   0.17   3.0   ENE   55.0   55.3   55.3   53.2  29.921  0.00  0.00    16     0.23     19     0.0  0.00   0.0   0.069   0.000   71.0    57   55.0   70.2  10.51  .0737    0.000   200    7    100.0   10 
 6/21/21  6:30a   54.7   55.0   54.6    98   54.1   1.0   ENE   0.17   3.0   ENE   54.7   55.0   55.0   53.0  29.921  0.00  0.00    20     0.29     23     0.0  0.00   0.0   0.072   0.000   71.0    57   55.0   70.2  10.51  .0737    0.000   202    7    100.0   10 
 6/21/21  6:40a   54.5   54.7   54.5    98   53.9   0.0   ENE   0.00   3.0   ENE   54.5   54.8   54.8   52.8  29.925  0.00  0.00    21     0.30     23     0.0  0.00   0.0   0.073   0.000   71.0    57   55.0   70.2  10.51  .0737    0.000   197    7     99.5   10 
 6/21/21  6:50a   54.5   54.5   54.3    98   53.9   0.0   ENE   0.00   2.0   ENE   54.5   54.8   54.8   52.9  29.929  0.00  0.00    25     0.36     28     0.0  0.00   0.0   0.073   0.000   71.0    57   55.0   70.2  10.51  .0737    0.000   194    7     98.0   10 
 6/21/21  7:00a   54.5   54.5   54.4    98   53.9   1.0   ENE   0.17   3.0   ENE   54.5   54.8   54.8   54.6  29.929  0.00  0.00    34     0.49     42     0.0  0.00   0.0   0.073   0.000   71.0    57   55.0   70.2  10.51  .0737    0.000   197    7     99.5   10 
 6/21/21  7:10a   54.6   54.7   54.5    98   54.0   0.0   ENE   0.00   2.0   ENE   54.6   54.9   54.9   55.1  29.930  0.00  0.00    43     0.62     47     0.0  0.00   0.0   0.072   0.000   71.0    57   55.0   70.2  10.51  .0737    0.000   196    7     99.0   10 
 6/21/21  7:20a   54.8   54.8   54.6    98   54.2   0.0   ENE   0.00   1.0   ENE   54.8   55.1   55.1   55.7  29.930  0.00  0.00    54     0.77     60     0.0  0.00   0.0   0.071   0.000   71.1    57   55.1   70.3  10.51  .0737    0.000   193    7     97.5   10 
 6/21/21  7:30a   54.4   54.8   54.4    98   53.8   0.0   ENE   0.00   2.0   ENE   54.4   54.7   54.7   55.4  29.931  0.00  0.00    57     0.82     58     0.0  0.00   0.0   0.074   0.000   71.1    57   55.1   70.3  10.51  .0737    0.000   203    7    100.0   10 
 6/21/21  7:40a   54.6   54.7   54.3    98   54.0   0.0   ENE   0.00   2.0   ENE   54.6   54.9   54.9   56.5  29.931  0.00  0.00    80     1.15    107     0.0  0.00   0.0   0.072   0.000   71.1    57   55.1   70.3  10.51  .0737    0.000   203    7    100.0   10 
 6/21/21  7:50a   54.4   54.7   54.4    98   53.8   0.0   ENE   0.00   1.0   ENE   54.4   54.7   54.7   57.2  29.934  0.00  0.00   107     1.53    114     0.0  0.00   0.0   0.074   0.000   71.2    57   55.2   70.5  10.50  .0737    0.000   196    7     99.0   10 
 6/21/21  8:00a   54.1   54.4   54.0    98   53.5   0.0   ---   0.00   0.0   ---   54.1   54.4   54.4   57.1  29.934  0.00  0.00   117     1.68    123     0.1  0.01   0.5   0.076   0.000   71.2    57   55.2   70.5  10.50  .0737    0.001   191    7     96.5   10 
 6/21/21  8:10a   54.6   54.6   54.1    99   54.3   0.0   ---   0.00   0.0   ---   54.6   55.0   55.0   57.5  29.929  0.00  0.00   115     1.65    137     0.5  0.04   0.5   0.072   0.000   71.2    57   55.2   70.5  10.50  .0737    0.000   197    7     99.5   10 
 6/21/21  8:20a   55.3   55.3   54.6    98   54.7   0.0   ---   0.00   0.0   ---   55.3   55.6   55.6   58.7  29.927  0.00  0.00   135     1.94    146     0.6  0.04   0.6   0.067   0.000   71.3    57   55.3   70.6  10.50  .0737    0.000   198    7    100.0   10 
 6/21/21  8:30a   55.5   55.6   55.3    98   54.9   1.0   ENE   0.17   3.0   ENE   55.5   55.8   55.8   59.4  29.926  0.00  0.00   157     2.25    163     0.7  0.05   0.7   0.066   0.000   71.3    57   55.3   70.6  10.50  .0737    0.000   199    7    100.0   10 
 6/21/21  8:40a   55.6   55.7   55.5    98   55.0   2.0    NE   0.33   4.0     N   55.6   55.9   55.9   59.9  29.928  0.00  0.00   174     2.49    199     0.8  0.06   0.9   0.065   0.000   71.4    57   55.4   70.8  10.49  .0736    0.000   200    7    100.0   10 
 6/21/21  8:50a   56.2   56.2   55.6    99   55.9   1.0   ENE   0.17   4.0   NNE   56.2   56.6   56.6   60.4  29.930  0.00  0.00   173     2.48    188     0.9  0.06   1.0   0.061   0.000   71.4    57   55.4   70.8  10.49  .0736    0.000   200    7    100.0   10 
 6/21/21  9:00a   56.2   56.3   56.1    98   55.6   2.0    NE   0.33   5.0   ENE   56.2   56.5   56.5   61.0  29.929  0.00  0.00   203     2.91    241     1.1  0.08   1.3   0.061   0.000   71.5    57   55.5   70.9  10.49  .0736    0.003   201    7    100.0   10 
 6/21/21  9:10a   56.2   56.3   56.1    98   55.6   3.0    NE   0.50   5.0    NE   56.2   56.5   56.5   61.5  29.932  0.00  0.00   225     3.23    260     1.3  0.09   1.3   0.061   0.000   71.6    57   55.6   71.1  10.49  .0736    0.000   203    7    100.0   10 
 6/21/21  9:20a   56.9   56.9   56.2    98   56.3   4.0    NE   0.67   8.0   NNE   56.9   57.2   57.2   62.5  29.930  0.00  0.00   240     3.44    338     1.5  0.11   1.8   0.056   0.000   71.6    57   55.6   71.1  10.49  .0736    0.000   201    7    100.0   10 
 6/21/21  9:30a   57.0   57.0   56.6    98   56.4   4.0    NE   0.67   7.0    NE   57.0   57.3   57.3   63.1  29.930  0.00  0.00   267     3.83    327     1.6  0.11   1.8   0.056   0.000   71.7    57   55.7   71.2  10.48  .0736    0.000   203    7    100.0   10 
 6/21/21  9:40a   57.3   57.3   56.8    98   56.7   4.0    NE   0.67   7.0    NE   57.3   57.6   57.6   63.0  29.932  0.00  0.00   258     3.70    301     1.7  0.12   1.9   0.053   0.000   71.8    57   55.7   71.4  10.48  .0736    0.000   202    7    100.0   10 
 6/21/21  9:50a   57.5   57.6   57.3    98   56.9   4.0    NE   0.67   8.0   ENE   57.5   57.8   57.8   62.8  29.934  0.00  0.00   251     3.60    323     1.8  0.13   2.1   0.052   0.000   71.9    57   55.8   71.5  10.47  .0736    0.000   203    7    100.0   10 
 6/21/21 10:00a   57.8   58.0   57.5    98   57.2   3.0   ENE   0.50   7.0     E   57.8   58.2   58.2   64.7  29.932  0.00  0.00   316     4.53    378     2.0  0.14   2.2   0.050   0.000   72.0    57   55.9   71.7  10.47  .0735    0.005   202    7    100.0   10 
 6/21/21 10:10a   56.3   57.8   56.3    97   55.5   5.0    NE   0.83   8.0   NNE   55.6   56.6   55.9   59.6  29.935  0.00  0.00   206     2.95    220     1.5  0.11   1.6   0.060   0.000   72.0    57   55.9   71.7  10.47  .0736    0.000   202    7    100.0   10 
 6/21/21 10:20a   56.4   56.4   56.1    98   55.8   4.0   NNE   0.67   7.0     N   56.3   56.7   56.6   61.1  29.933  0.01  0.00   245     3.51    265     1.7  0.12   1.8   0.060   0.000   72.0    57   55.9   71.7  10.47  .0735    0.000   201    7    100.0   10 
 6/21/21 10:30a   56.9   56.9   56.4    98   56.3   4.0   NNE   0.67   7.0   NNE   56.9   57.2   57.2   63.1  29.934  0.00  0.00   307     4.40    374     2.1  0.15   2.4   0.056   0.000   72.1    57   56.0   71.8  10.47  .0735    0.000   202    7    100.0   10 
 6/21/21 10:40a   56.6   57.0   56.6    98   56.0   5.0   NNE   0.83   8.0   ENE   56.0   56.9   56.3   61.1  29.933  0.00  0.00   267     3.83    320     2.1  0.15   2.5   0.058   0.000   72.2    57   56.1   72.0  10.46  .0735    0.000   201    7    100.0   10 
 6/21/21 10:50a   56.7   56.8   56.5    98   56.1   5.0    NE   0.83   9.0    NE   56.1   57.0   56.4   61.9  29.937  0.00  0.00   299     4.29    338     2.4  0.17   2.7   0.058   0.000   72.3    57   56.2   72.1  10.46  .0735    0.000   200    7    100.0   10 
 6/21/21 11:00a   57.0   57.0   56.6    98   56.4   5.0   NNE   0.83   9.0   NNE   56.4   57.3   56.7   61.9  29.938  0.00  0.00   288     4.13    302     2.2  0.16   2.3   0.056   0.000   72.3    57   56.2   72.1  10.46  .0735    0.005   203    7    100.0   10 
 6/21/21 11:10a   57.3   57.4   57.0    98   56.7   5.0   NNE   0.83   8.0   NNE   56.8   57.6   57.1   62.5  29.943  0.00  0.00   300     4.30    325     2.5  0.18   2.9   0.053   0.000   72.4    57   56.3   72.3  10.45  .0735    0.000   204    7    100.0   10 
 6/21/21 11:20a   57.9   57.9   57.2    98   57.3   4.0   NNE   0.67   9.0     N   57.9   58.3   58.3   66.1  29.946  0.00  0.00   426     6.11    492     3.6  0.26   4.0   0.049   0.000   72.5    57   56.4   72.4  10.45  .0735    0.000   199    7    100.0   10 
 6/21/21 11:30a   58.3   58.3   57.9    98   57.7   3.0     N   0.50   7.0     E   58.3   58.7   58.7   64.8  29.944  0.00  0.00   336     4.82    380     2.7  0.19   3.2   0.047   0.000   72.6    57   56.5   72.6  10.45  .0735    0.000   198    7    100.0   10 
 6/21/21 11:40a   57.9   58.2   57.8    97   57.1   4.0   NNE   0.67   8.0   NNE   57.9   58.2   58.2   64.4  29.945  0.00  0.00   344     4.93    533     3.0  0.21   4.5   0.049   0.000   72.7    57   56.6   72.7  10.44  .0735    0.000   203    7    100.0   10 
 6/21/21 11:50a   58.3   58.4   57.9    97   57.5   4.0     N   0.67   8.0   NNE   58.3   58.7   58.7   67.1  29.946  0.00  0.00   467     6.69    619     4.0  0.29   5.3   0.047   0.000   72.8    57   56.7   72.9  10.44  .0734    0.000   199    7    100.0   10 
 6/21/21 12:00p   58.6   58.6   58.2    97   57.8   3.0   NNE   0.50   5.0     N   58.6   59.0   59.0   65.3  29.946  0.00  0.00   351     5.03    376     2.9  0.21   3.2   0.044   0.000   72.9    57   56.8   73.0  10.43  .0734    0.008   198    7    100.0   10 
 6/21/21 12:10p   58.7   58.9   58.6    97   57.9   3.0     N   0.50   4.0     N   58.7   59.1   59.1   64.8  29.948  0.00  0.00   319     4.57    378     2.8  0.20   3.1   0.044   0.000   72.9    57   56.8   73.0  10.43  .0734    0.000   200    7    100.0   10 
 6/21/21 12:20p   59.1   59.1   58.7    97   58.2   2.0   NNE   0.33   5.0     N   59.1   59.5   59.5   65.8  29.950  0.00  0.00   349     5.00    373     2.9  0.21   3.1   0.041   0.000   72.9    57   56.8   73.0  10.43  .0734    0.000   200    7    100.0   10 
 6/21/21 12:30p   59.5   59.5   59.1    97   58.6   3.0   NNE   0.50   7.0   NNE   59.5   60.0   60.0   67.2  29.950  0.00  0.00   399     5.72    462     3.5  0.25   4.0   0.038   0.000   73.0    57   56.9   73.2  10.43  .0734    0.000   194    7     98.0   10 
 6/21/21 12:40p   59.9   59.9   59.5    96   58.8   3.0   NNE   0.50   7.0    NE   59.9   60.3   60.3   68.6  29.951  0.00  0.00   464     6.65    506     4.0  0.29   4.2   0.035   0.000   73.1    57   57.0   73.3  10.43  .0734    0.000   190    7     96.0   10 
 6/21/21 12:50p   60.0   60.0   59.9    96   58.9   3.0   ENE   0.50   6.0   NNE   60.0   60.4   60.4   68.5  29.950  0.00  0.00   453     6.49    475     4.0  0.29   4.2   0.035   0.000   73.3    57   57.1   73.5  10.42  .0734    0.000   194    7     98.0   10 
 6/21/21  1:00p   60.0   60.3   60.0    95   58.6   3.0   ENE   0.50   7.0   NNE   60.0   60.4   60.4   68.6  29.949  0.00  0.00   458     6.57    485     4.1  0.29   4.3   0.035   0.000   73.3    57   57.1   73.5  10.42  .0734    0.008   196    7     99.0   10 
 6/21/21  1:10p   60.3   60.4   59.9    96   59.2   4.0   NNE   0.67   8.0     N   60.3   60.8   60.8   70.2  29.948  0.00  0.00   536     7.68    629     4.7  0.34   5.2   0.033   0.000   73.4    57   57.2   73.7  10.41  .0733    0.000   192    7     97.0   10 
 6/21/21  1:20p   60.6   60.7   60.4    95   59.2   5.0   NNE   0.83   8.0   NNE   60.6   61.1   61.1   70.1  29.946  0.00  0.00   505     7.24    566     5.1  0.36   6.5   0.031   0.000   73.5    57   57.3   73.8  10.41  .0733    0.000   196    7     99.0   10 
 6/21/21  1:30p   61.5   61.5   60.7    95   60.1   5.0   NNE   0.83   9.0   NNE   61.5   62.1   62.1   73.2  29.945  0.00  0.00   679     9.73    788     5.9  0.42   6.4   0.024   0.000   73.6    57   57.4   73.9  10.41  .0733    0.000   193    7     97.5   10 
 6/21/21  1:40p   62.0   62.1   61.5    94   60.3   4.0     N   0.67   8.0   NNE   62.0   62.7   62.7   74.2  29.944  0.00  0.00   728    10.44   1028     6.3  0.45   7.8   0.021   0.000   73.8    57   57.6   74.2  10.40  .0733    0.000   198    7    100.0   10 
 6/21/21  1:50p   61.2   62.0   61.2    93   59.2   6.0     N   1.00   9.0   NNW   61.0   61.7   61.5   72.4  29.946  0.00  0.00   657     9.42    921     5.8  0.41   6.9   0.026   0.000   73.7    57   57.5   74.0  10.40  .0733    0.000   195    7     98.5   10 
 6/21/21  2:00p   60.5   61.2   60.5    93   58.5   5.0     N   0.83   8.0     N   60.5   60.9   60.9   70.5  29.944  0.00  0.00   550     7.88    657     4.9  0.35   5.4   0.031   0.000   72.7    58   57.1   72.8  10.64  .0734    0.013   196    7     99.0   10 
 6/21/21  2:10p   60.2   60.5   60.2    94   58.5   4.0     N   0.67   8.0     N   60.2   60.6   60.6   69.2  29.943  0.00  0.00   480     6.88    522     4.2  0.30   4.5   0.033   0.000   72.0    59   56.9   71.8  10.87  .0735    0.000   198    7    100.0   10 
 6/21/21  2:20p   60.7   60.7   60.2    94   59.0   3.0     N   0.50   8.0     N   60.7   61.2   61.2   69.2  29.944  0.00  0.00   442     6.34    499     3.9  0.28   4.4   0.030   0.000   71.9    59   56.8   71.7  10.87  .0736    0.000   197    7     99.5   10 
 6/21/21  2:30p   61.0   61.1   60.7    93   59.0   3.0     N   0.50   7.0     N   61.0   61.5   61.5   69.5  29.944  0.00  0.00   445     6.38    473     3.9  0.28   4.0   0.028   0.000   71.7    59   56.6   71.4  10.88  .0736    0.000   193    7     97.5   10 
 6/21/21  2:40p   61.1   61.1   60.8    93   59.1   4.0     N   0.67   6.0   NNW   61.1   61.6   61.6   69.9  29.942  0.00  0.00   458     6.57    492     4.0  0.29   4.2   0.027   0.000   71.7    60   57.1   71.5  11.02  .0736    0.000   196    7     99.0   10 
 6/21/21  2:50p   61.1   61.2   61.0    93   59.1   4.0     N   0.67   8.0   NNW   61.1   61.6   61.6   70.9  29.941  0.00  0.00   525     7.53    628     4.3  0.31   4.9   0.027   0.000   71.7    60   57.1   71.5  11.02  .0736    0.000   193    7     97.5   10 
 6/21/21  3:00p   61.2   61.2   61.0    93   59.2   3.0     N   0.50   8.0   NNW   61.2   61.7   61.7   68.6  29.940  0.00  0.00   375     5.38    497     3.0  0.21   4.0   0.026   0.000   71.3    60   56.7   70.9  11.02  .0736    0.010   198    7    100.0   10 
 6/21/21  3:10p   60.1   61.1   60.1    92   57.8   5.0    NE   0.83   9.0   ENE   60.1   60.4   60.4   66.6  29.940  0.00  0.00   341     4.89    367     2.7  0.19   3.0   0.034   0.000   70.3    61   56.2   69.7  11.24  .0738    0.000   203    7    100.0   10 
 6/21/21  3:20p   59.8   60.2   59.8    93   57.8   6.0   NNE   1.00   9.0   NNE   59.4   60.2   59.8   66.3  29.937  0.00  0.00   357     5.12    387     2.8  0.20   3.0   0.036   0.000   69.5    63   56.3   69.1  11.56  .0739    0.000   203    7    100.0   10 
 6/21/21  3:30p   59.7   59.7   59.5    94   58.0   6.0    NE   1.00  10.0   NNE   59.2   60.1   59.6   66.3  29.937  0.00  0.00   363     5.20    401     2.7  0.19   2.9   0.037   0.000   68.8    64   56.1   68.7  11.67  .0740    0.000   203    7    100.0   10 
 6/21/21  3:40p   60.4   60.4   59.8    94   58.7   5.0    NE   0.83  11.0   ENE   60.4   60.8   60.8   68.8  29.933  0.00  0.00   429     6.15    485     3.1  0.22   3.5   0.032   0.000   68.8    65   56.6   68.8  11.87  .0740    0.000   202    7    100.0   10 
 6/21/21  3:50p   60.1   60.4   60.0    93   58.1   6.0   NNE   1.00  10.0     N   59.7   60.5   60.1   67.6  29.936  0.00  0.00   396     5.68    443     2.8  0.20   3.1   0.034   0.000   68.5    65   56.3   68.6  11.88  .0740    0.000   204    7    100.0   10 
 6/21/21  4:00p   59.7   60.1   59.7    93   57.7   7.0   NNE   1.17  12.0   NNE   58.8   60.0   59.1   65.8  29.937  0.00  0.00   363     5.20    378     2.5  0.18   2.7   0.037   0.000   68.2    66   56.4   68.4  12.15  .0741    0.008   202    7    100.0   10 
 6/21/21  4:10p   59.7   59.8   59.6    93   57.7   6.0   NNE   1.00  11.0   NNE   59.2   60.0   59.5   66.0  29.935  0.00  0.00   336     4.82    352     2.2  0.16   2.3   0.037   0.000   68.1    66   56.3   68.4  12.15  .0741    0.000   203    7    100.0   10 
 6/21/21  4:20p   59.8   59.9   59.6    94   58.1   6.0    NE   1.00  10.0   NNE   59.4   60.2   59.8   66.4  29.934  0.00  0.00   332     4.76    399     2.1  0.15   2.4   0.036   0.000   68.2    66   56.4   68.4  12.15  .0741    0.000   202    7    100.0   10 
 6/21/21  4:30p   59.7   59.8   59.7    93   57.7   7.0    NE   1.17  12.0   NNE   58.8   60.0   59.1   65.5  29.932  0.00  0.00   332     4.76    360     2.1  0.15   2.3   0.037   0.000   68.1    66   56.3   68.4  12.15  .0741    0.000   204    7    100.0   10 
 6/21/21  4:40p   59.6   59.7   59.5    93   57.6   7.0   NNE   1.17  11.0   NNE   58.7   59.9   59.0   65.4  29.932  0.00  0.00   326     4.67    345     2.0  0.14   2.2   0.038   0.000   67.9    66   56.1   68.2  12.15  .0741    0.000   202    7    100.0   10 
 6/21/21  4:50p   59.4   59.6   59.4    93   57.4   7.0    NE   1.17  12.0   NNE   58.5   59.7   58.8   65.2  29.931  0.00  0.00   318     4.56    330     1.9  0.14   2.0   0.039   0.000   67.8    66   56.0   68.0  12.15  .0741    0.000   203    7    100.0   10 
 6/21/21  5:00p   59.4   59.5   59.3    94   57.7   6.0    NE   1.00  11.0    NE   58.9   59.8   59.3   65.4  29.931  0.00  0.00   285     4.09    313     1.6  0.11   1.7   0.039   0.000   67.7    66   55.9   67.9  12.15  .0741    0.007   203    7    100.0   10 
 6/21/21  5:10p   59.3   59.4   59.2    94   57.6   6.0   NNE   1.00  10.0    NE   58.8   59.7   59.2   65.0  29.936  0.00  0.00   266     3.81    315     1.4  0.10   1.7   0.040   0.000   67.7    66   55.9   67.9  12.15  .0742    0.000   203    7    100.0   10 
 6/21/21  5:20p   58.9   59.4   58.9    93   56.9   6.0   NNE   1.00  10.0   NNE   58.3   59.2   58.6   62.9  29.936  0.00  0.00   208     2.98    223     1.2  0.09   1.3   0.042   0.000   67.6    66   55.8   67.8  12.15  .0742    0.000   201    7    100.0   10 
 6/21/21  5:30p   58.6   58.9   58.5    93   56.6   6.0    NE   1.00  10.0   NNE   57.9   58.9   58.2   62.2  29.937  0.00  0.00   190     2.72    202     1.0  0.07   1.1   0.044   0.000   67.3    66   55.5   67.4  12.15  .0742    0.000   201    7    100.0   10 
 6/21/21  5:40p   58.5   58.6   58.4    94   56.8   5.0   NNE   0.83   9.0    NE   58.2   58.8   58.5   62.6  29.934  0.00  0.00   188     2.70    207     1.0  0.07   1.1   0.045   0.000   67.4    67   56.1   67.6  12.40  .0742    0.000   203    7    100.0   10 
 6/21/21  5:50p   58.7   58.8   58.5    94   57.0   4.0    NE   0.67  10.0   ENE   58.7   59.0   59.0   62.5  29.933  0.00  0.00   162     2.32    171     0.8  0.06   0.9   0.044   0.000   67.7    66   55.9   67.9  12.15  .0741    0.000   201    7    100.0   10 
 6/21/21  6:00p   58.6   58.8   58.6    94   56.9   5.0    NE   0.83   9.0   NNE   58.3   58.9   58.6   62.5  29.932  0.00  0.00   170     2.44    179     0.8  0.06   0.8   0.044   0.000   67.7    66   55.9   67.9  12.15  .0741    0.004   202    7    100.0   10 
 6/21/21  6:10p   58.8   58.8   58.5    94   57.1   4.0    NE   0.67   8.0   NNE   58.8   59.1   59.1   62.0  29.931  0.00  0.00   133     1.91    165     0.7  0.05   0.8   0.043   0.000   67.7    67   56.3   68.0  12.40  .0741    0.000   201    7    100.0   10 
 6/21/21  6:20p   59.2   59.2   58.8    94   57.5   4.0   ENE   0.67   8.0   NNE   59.2   59.6   59.6   62.4  29.930  0.00  0.00   124     1.78    135     0.6  0.04   0.7   0.040   0.000   67.7    67   56.3   68.0  12.40  .0741    0.000   201    7    100.0   10 
 6/21/21  6:30p   58.6   59.2   58.6    94   56.9   4.0    NE   0.67   9.0   NNE   58.6   58.9   58.9   61.0  29.931  0.00  0.00   103     1.48    121     0.3  0.02   0.5   0.044   0.000   67.8    66   56.0   68.0  12.15  .0741    0.000   199    7    100.0   10 
 6/21/21  6:40p   58.3   58.6   58.2    94   56.6   4.0    NE   0.67   7.0    NE   58.3   58.6   58.6   60.0  29.934  0.00  0.00    80     1.15     86     0.0  0.00   0.0   0.047   0.000   67.9    66   56.1   68.2  12.15  .0741    0.000   202    7    100.0   10 
 6/21/21  6:50p   58.1   58.3   58.1    94   56.4   3.0    NE   0.50   7.0   NNE   58.1   58.4   58.4   59.7  29.935  0.00  0.00    74     1.06     77     0.0  0.00   0.0   0.048   0.000   68.5    66   56.7   68.6  12.15  .0740    0.000   200    7    100.0   10 
 6/21/21  7:00p   58.0   58.2   58.0    95   56.6   3.0   NNE   0.50   6.0     E   58.0   58.3   58.3   59.7  29.937  0.00  0.00    74     1.06     77     0.0  0.00   0.0   0.049   0.000   69.1    65   56.8   69.0  11.87  .0739    0.002   203    7    100.0   10 
 6/21/21  7:10p   58.1   58.1   58.0    95   56.7   3.0    NE   0.50   5.0   NNE   58.1   58.4   58.4   59.8  29.941  0.00  0.00    72     1.03     77     0.0  0.00   0.0   0.048   0.000   69.7    64   57.0   69.4  11.66  .0738    0.000   200    7    100.0   10 
 6/21/21  7:20p   58.0   58.1   57.9    95   56.6   2.0    NE   0.33   4.0     N   58.0   58.3   58.3   58.8  29.942  0.00  0.00    50     0.72     58     0.0  0.00   0.0   0.049   0.000   70.2    64   57.4   69.8  11.65  .0738    0.000   204    7    100.0   10 
 6/21/21  7:30p   57.9   58.0   57.9    95   56.5   2.0    NE   0.33   3.0    NE   57.9   58.2   58.2   58.4  29.948  0.00  0.00    42     0.60     46     0.0  0.00   0.0   0.049   0.000   70.6    63   57.4   70.2  11.54  .0737    0.000   204    7    100.0   10 
 6/21/21  7:40p   57.8   58.0   57.8    95   56.4   1.0    NE   0.17   2.0    NE   57.8   58.1   58.1   58.0  29.948  0.00  0.00    34     0.49     37     0.0  0.00   0.0   0.050   0.000   70.9    63   57.7   70.6  11.53  .0737    0.000   201    7    100.0   10 
 6/21/21  7:50p   57.7   57.9   57.7    95   56.3   0.0    NE   0.00   2.0    NE   57.7   58.0   58.0   57.7  29.951  0.00  0.00    29     0.42     32     0.0  0.00   0.0   0.051   0.000   71.2    62   57.5   70.9  11.33  .0736    0.000   201    7    100.0   10 
 6/21/21  8:00p   57.0   57.7   57.0    95   55.6   0.0   ---   0.00   0.0   ---   57.0   57.2   57.2   55.5  29.951  0.00  0.00    25     0.36     26     0.0  0.00   0.0   0.056   0.000   71.4    62   57.7   71.2  11.32  .0736    0.001   201    7    100.0   10 
 6/21/21  8:10p   56.7   57.0   56.7    95   55.3   0.0    NE   0.00   1.0    NE   56.7   56.9   56.9   55.0  29.952  0.00  0.00    20     0.29     23     0.0  0.00   0.0   0.058   0.000   71.5    62   57.8   71.4  11.32  .0736    0.000   201    7    100.0   10 
 6/21/21  8:20p   56.6   56.7   56.6    95   55.2   0.0   ---   0.00   0.0   ---   56.6   56.8   56.8   54.8  29.954  0.00  0.00    14     0.20     18     0.0  0.00   0.0   0.058   0.000   71.7    62   58.0   71.6  11.32  .0736    0.000   201    7    100.0   10 
 6/21/21  8:30p   56.4   56.7   56.4    95   55.0   0.0     E   0.00   3.0   SSE   56.4   56.6   56.6   54.5  29.955  0.00  0.00    10     0.14     12     0.0  0.00   0.0   0.060   0.000   71.7    62   58.0   71.6  11.32  .0736    0.000   203    7    100.0   10 
 6/21/21  8:40p   56.2   56.5   56.2    95   54.8   2.0   SSE   0.33   3.0   SSE   56.2   56.4   56.4   54.2  29.955  0.00  0.00     7     0.10      9     0.0  0.00   0.0   0.061   0.000   71.8    61   57.6   71.7  11.18  .0736    0.000   203    7    100.0   10 
 6/21/21  8:50p   55.4   56.2   55.4    95   54.0   4.0   SSW   0.67   7.0   SSW   55.1   55.6   55.3   53.0  29.956  0.00  0.00     3     0.04      5     0.0  0.00   0.0   0.067   0.000   71.9    61   57.7   71.8  11.17  .0735    0.000   202    7    100.0   10 
 6/21/21  9:00p   55.3   55.4   55.2    96   54.2   5.0     S   0.83   6.0   SSW   54.5   55.5   54.7   52.3  29.956  0.00  0.00     0     0.00      0     0.0  0.00   0.0   0.067   0.000   72.0    61   57.8   72.0  11.17  .0735    0.000   199    7    100.0   10 
 6/21/21  9:10p   55.3   55.3   55.1    96   54.2   5.0     S   0.83   8.0   SSW   54.5   55.5   54.7   52.3  29.958  0.00  0.00     0     0.00      0     0.0  0.00   0.0   0.067   0.000   72.0    61   57.8   72.0  11.17  .0735    0.000   200    7    100.0   10 
 6/21/21  9:20p   54.9   55.2   54.8    96   53.8   5.0     S   0.83   8.0   SSW   54.0   55.1   54.2   51.8  29.961  0.00  0.00     0     0.00      0     0.0  0.00   0.0   0.070   0.000   72.1    61   57.9   72.1  11.17  .0735    0.000   203    7    100.0   10 
 6/21/21  9:30p   54.9   54.9   54.8    96   53.8   6.0   SSW   1.00  10.0   SSW   53.5   55.1   53.7   51.3  29.963  0.00  0.00     0     0.00      0     0.0  0.00   0.0   0.070   0.000   72.1    60   57.4   72.1  11.01  .0735    0.000   200    7    100.0   10 
 6/21/21  9:40p   55.0   55.0   54.9    97   54.2   6.0   SSW   1.00   9.0     S   53.6   55.3   53.9   51.5  29.965  0.00  0.00     0     0.00      0     0.0  0.00   0.0   0.069   0.000   72.1    60   57.4   72.1  11.01  .0736    0.000   201    7    100.0   10 
 6/21/21  9:50p   55.1   55.1   55.0    97   54.3   6.0   SSW   1.00   8.0   SSW   53.7   55.4   54.0   51.6  29.966  0.00  0.00     0     0.00      0     0.0  0.00   0.0   0.069   0.000   72.2    60   57.5   72.2  11.01  .0735    0.000   204    7    100.0   10 
 6/21/21 10:00p   54.7   55.1   54.6    96   53.6   6.0   SSW   1.00   9.0     S   53.2   54.9   53.4   51.0  29.970  0.00  0.00     0     0.00      0     0.0  0.00   0.0   0.072   0.000   72.2    60   57.5   72.2  11.01  .0735    0.000   203    7    100.0   10 
 6/21/21 10:10p   54.8   54.8   54.6    97   54.0   5.0     S   0.83   8.0   SSW   53.9   55.1   54.2   51.8  29.973  0.00  0.00     0     0.00      0     0.0  0.00   0.0   0.071   0.000   72.2    60   57.5   72.2  11.01  .0736    0.000   203    7    100.0   10 
 6/21/21 10:20p   54.7   54.9   54.7    97   53.9   5.0   SSW   0.83   7.0   SSW   53.7   55.0   54.0   51.6  29.974  0.00  0.00     0     0.00      0     0.0  0.00   0.0   0.072   0.000   72.2    60   57.5   72.2  11.01  .0736    0.000   202    7    100.0   10 
 6/21/21 10:30p   54.4   54.7   54.3    97   53.6   5.0     S   0.83   8.0   SSE   53.4   54.7   53.7   51.3  29.978  0.00  0.00     0     0.00      0     0.0  0.00   0.0   0.074   0.000   72.2    60   57.5   72.2  11.01  .0736    0.000   204    7    100.0   10 
 6/21/21 10:40p   54.9   55.0   54.4    97   54.1   5.0     S   0.83   7.0     S   54.0   55.2   54.3   51.9  29.976  0.00  0.00     0     0.00      0     0.0  0.00   0.0   0.070   0.000   72.2    59   57.1   72.1  10.86  .0736    0.000   203    7    100.0   10 
 6/21/21 10:50p   54.7   55.0   54.7    97   53.9   4.0     S   0.67   7.0   SSW   54.3   55.0   54.6   52.2  29.980  0.00  0.00     0     0.00      0     0.0  0.00   0.0   0.072   0.000   72.2    59   57.1   72.1  10.86  .0736    0.000   202    7    100.0   10 
 6/21/21 11:00p   54.6   54.6   54.5    97   53.8   4.0     S   0.67   7.0   SSW   54.2   54.9   54.5   52.1  29.977  0.00  0.00     0     0.00      0     0.0  0.00   0.0   0.072   0.000   72.2    59   57.1   72.1  10.86  .0736    0.000   203    7    100.0   10 
 6/21/21 11:10p   53.7   54.7   53.7    97   52.9   5.0   SSW   0.83   8.0   SSW   52.5   54.0   52.8   50.3  29.977  0.00  0.00     0     0.00      0     0.0  0.00   0.0   0.078   0.000   72.2    59   57.1   72.1  10.86  .0736    0.000   203    7    100.0   10 
 6/21/21 11:20p   53.5   53.7   53.5    97   52.7   4.0     S   0.67   8.0   SSW   52.9   53.8   53.2   50.7  29.974  0.00  0.00     0     0.00      0     0.0  0.00   0.0   0.080   0.000   72.2    59   57.1   72.1  10.86  .0736    0.000   201    7    100.0   10 
 6/21/21 11:30p   53.7   53.9   53.6    97   52.9   4.0     S   0.67   7.0   SSW   53.1   54.0   53.4   50.9  29.970  0.00  0.00     0     0.00      0     0.0  0.00   0.0   0.078   0.000   72.2    59   57.1   72.1  10.86  .0736    0.000   202    7    100.0   10 
 6/21/21 11:40p   53.3   53.7   53.2    97   52.5   5.0   SSW   0.83   7.0     S   52.1   53.6   52.4   49.9  29.971  0.00  0.00     0     0.00      0     0.0  0.00   0.0   0.081   0.000   72.2    59   57.1   72.1  10.86  .0736    0.000   202    7    100.0   10 
 6/21/21 11:50p   53.4   53.4   53.3    97   52.6   3.0     S   0.50   6.0   SSW   53.4   53.7   53.7   51.2  29.966  0.00  0.00     0     0.00      0     0.0  0.00   0.0   0.081   0.000   72.2    59   57.1   72.1  10.86  .0736    0.000   205    7    100.0   10 
 6/22/21 12:00a   54.1   54.1   53.4    98   53.5   2.0     S   0.33   5.0   SSW   54.1   54.4   54.4   52.0  29.964  0.00  0.00     0     0.00      0     0.0  0.00   0.0   0.076   0.000   72.2    59   57.1   72.1  10.86  .0736    0.000   202    7    100.0   10 
 6/22/21 12:10a   54.1   54.3   54.1    97   53.3   1.0     S   0.17   3.0     S   54.1   54.4   54.4   52.0  29.970  0.00  0.00     0     0.00      0     0.0  0.00   0.0   0.076   0.000   72.2    59   57.1   72.1  10.86  .0736    0.000   203    7    100.0   10 
 6/22/21 12:20a   53.7   54.1   53.6    97   52.9   3.0     S   0.50   6.0   SSE   53.7   54.0   54.0   51.5  29.970  0.00  0.00     0     0.00      0     0.0  0.00   0.0   0.078   0.000   72.2    59   57.1   72.1  10.86  .0736    0.000   203    7    100.0   10 
 6/22/21 12:30a   53.4   53.7   53.3    97   52.6   4.0     S   0.67   7.0   SSW   52.8   53.7   53.1   50.6  29.978  0.00  0.00     0     0.00      0     0.0  0.00   0.0   0.081   0.000   72.2    59   57.1   72.1  10.86  .0736    0.000   199    7    100.0   10 
 6/22/21 12:40a   53.5   53.5   53.4    98   52.9   4.0   SSW   0.67   9.0     S   52.9   53.8   53.2   50.7  29.972  0.00  0.00     0     0.00      0     0.0  0.00   0.0   0.080   0.000   72.2    59   57.1   72.1  10.86  .0736    0.000   204    7    100.0   10 
 6/22/21 12:50a   53.4   53.5   53.4    97   52.6   2.0     S   0.33   4.0   SSW   53.4   53.7   53.7   51.2  29.965  0.00  0.00     0     0.00      0     0.0  0.00   0.0   0.081   0.000   72.1    59   57.0   72.0  10.87  .0736    0.000   201    7    100.0   10 
 6/22/21  1:00a   53.3   53.4   53.2    98   52.8   1.0   SSW   0.17   4.0   SSW   53.3   53.6   53.6   51.1  29.969  0.00  0.00     0     0.00      0     0.0  0.00   0.0   0.081   0.000   72.1    59   57.0   72.0  10.87  .0736    0.000   201    7    100.0   10 
 6/22/21  1:10a   53.4   53.6   53.4    98   52.8   5.0   SSW   0.83  10.0   SSE   52.2   53.7   52.5   50.0  29.972  0.00  0.00     0     0.00      0     0.0  0.00   0.0   0.081   0.000   72.1    58   56.5   71.9  10.67  .0736    0.000   203    7    100.0   10 
 6/22/21  1:20a   53.6   53.7   53.4    98   53.0   5.0     S   0.83  10.0   SSW   52.4   53.9   52.7   50.3  29.972  0.00  0.00     0     0.00      0     0.0  0.00   0.0   0.079   0.000   72.1    58   56.5   71.9  10.67  .0736    0.000   201    7    100.0   10 
 6/22/21  1:30a   54.1   54.2   53.7    98   53.5   4.0     S   0.67   8.0   SSW   53.6   54.4   53.9   51.5  29.970  0.00  0.00     0     0.00      0     0.0  0.00   0.0   0.076   0.000   72.0    58   56.4   71.7  10.67  .0736    0.000   201    7    100.0   10 
 6/22/21  1:40a   54.4   54.5   54.2    98   53.8   2.0     S   0.33   6.0     S   54.4   54.7   54.7   52.3  29.966  0.00  0.00     0     0.00      0     0.0  0.00   0.0   0.074   0.000   72.0    58   56.4   71.7  10.67  .0736    0.000   203    7    100.0   10 
 6/22/21  1:50a   54.3   54.5   54.3    97   53.5   0.0     S   0.00   1.0     S   54.3   54.6   54.6   52.2  29.966  0.00  0.00     0     0.00      0     0.0  0.00   0.0   0.074   0.000   72.0    58   56.4   71.7  10.67  .0736    0.000   202    7    100.0   10 
 6/22/21  2:00a   54.1   54.3   54.0    98   53.5   1.0     S   0.17   3.0     S   54.1   54.4   54.4   52.0  29.965  0.00  0.00     0     0.00      0     0.0  0.00   0.0   0.076   0.000   72.0    58   56.4   71.7  10.67  .0736    0.000   200    7    100.0   10 
 6/22/21  2:10a   54.3   54.3   54.1    98   53.7   2.0     S   0.33   4.0     S   54.3   54.6   54.6   52.2  29.962  0.00  0.00     0     0.00      0     0.0  0.00   0.0   0.074   0.000   71.9    58   56.3   71.6  10.67  .0736    0.000   203    7    100.0   10 
 6/22/21  2:20a   54.3   54.3   54.1    98   53.7   2.0     S   0.33   4.0     S   54.3   54.6   54.6   52.2  29.962  0.00  0.00     0     0.00      0     0.0  0.00   0.0   0.074   0.000   71.9    58   56.3   71.6  10.67  .0736    0.000   203    7    100.0   10 
 6/22/21  2:30a   54.3   54.3   54.2    98   53.7   2.0     S   0.33   4.0     S   54.3   54.6   54.6   52.2  29.962  0.00  0.00     0     0.00      0     0.0  0.00   0.0   0.074   0.000   71.9    58   56.3   71.6  10.67  .0736    0.000   202    7    100.0   10 
 6/22/21  2:40a   54.2   54.3   54.2    98   53.6   0.0     S   0.00   2.0     S   54.2   54.5   54.5   52.1  29.962  0.00  0.00     0     0.00      0     0.0  0.00   0.0   0.075   0.000   71.9    58   56.3   71.6  10.67  .0736    0.000   203    7    100.0   10 
 6/22/21  2:50a   53.9   54.3   53.9    98   53.3   0.0     S   0.00   2.0     S   53.9   54.2   54.2   51.8  29.962  0.00  0.00     0     0.00      0     0.0  0.00   0.0   0.077   0.000   71.8    58   56.2   71.5  10.68  .0736    0.000   204    7    100.0   10 
 6/22/21  3:00a   53.9   53.9   53.8    98   53.3   2.0     S   0.33   4.0     S   53.9   54.2   54.2   51.8  29.963  0.00  0.00     0     0.00      0     0.0  0.00   0.0   0.077   0.000   71.8    58   56.2   71.5  10.68  .0736    0.000   203    7    100.0   10 
 6/22/21  3:10a   54.2   54.2   53.9    98   53.6   2.0   SSW   0.33   5.0   SSW   54.2   54.5   54.5   52.1  29.967  0.00  0.00     0     0.00      0     0.0  0.00   0.0   0.075   0.000   71.8    58   56.2   71.5  10.68  .0736    0.000   201    7    100.0   10 
 6/22/21  3:20a   54.2   54.2   54.1    98   53.6   2.0   SSW   0.33   4.0   SSW   54.2   54.5   54.5   52.1  29.963  0.00  0.00     0     0.00      0     0.0  0.00   0.0   0.075   0.000   71.8    58   56.2   71.5  10.68  .0736    0.000   202    7    100.0   10 
 6/22/21  3:30a   54.2   54.2   54.1    98   53.6   2.0     S   0.33   4.0   SSW   54.2   54.5   54.5   52.1  29.959  0.00  0.00     0     0.00      0     0.0  0.00   0.0   0.075   0.000   71.7    58   56.1   71.3  10.68  .0736    0.000   200    7    100.0   10 
 6/22/21  3:40a   54.2   54.2   54.1    98   53.6   0.0     S   0.00   2.0     S   54.2   54.5   54.5   52.1  29.958  0.00  0.00     0     0.00      0     0.0  0.00   0.0   0.075   0.000   71.7    58   56.1   71.3  10.68  .0736    0.000   202    7    100.0   10 
 6/22/21  3:50a   54.2   54.3   54.1    98   53.6   0.0     S   0.00   1.0     S   54.2   54.5   54.5   52.1  29.962  0.00  0.00     0     0.00      0     0.0  0.00   0.0   0.075   0.000   71.7    58   56.1   71.3  10.68  .0737    0.000   200    7    100.0   10 
 6/22/21  4:00a   54.1   54.2   54.1    98   53.5   0.0   ---   0.00   0.0   ---   54.1   54.4   54.4   52.0  29.961  0.01  0.00     0     0.00      0     0.0  0.00   0.0   0.076   0.000   71.7    58   56.1   71.3  10.68  .0737    0.000   199    7    100.0   10 
 6/22/21  4:10a   54.1   54.1   54.0    98   53.5   0.0   ---   0.00   0.0   ---   54.1   54.4   54.4   52.0  29.961  0.00  0.00     0     0.00      0     0.0  0.00   0.0   0.076   0.000   71.6    58   56.0   71.2  10.69  .0737    0.000   203    7    100.0   10 
 6/22/21  4:20a   54.3   54.3   54.1    98   53.7   0.0     S   0.00   3.0     S   54.3   54.6   54.6   52.2  29.963  0.00  0.00     0     0.00      0     0.0  0.00   0.0   0.074   0.000   71.6    58   56.0   71.2  10.69  .0737    0.000   202    7    100.0   10 
 6/22/21  4:30a   54.3   54.4   54.3    98   53.7   0.0     S   0.00   1.0     S   54.3   54.6   54.6   52.2  29.962  0.00  0.00     0     0.00      0     0.0  0.00   0.0   0.074   0.000   71.6    58   56.0   71.2  10.69  .0737    0.000   199    7    100.0   10 
 6/22/21  4:40a   54.3   54.4   54.3    98   53.7   0.0   ---   0.00   0.0   ---   54.3   54.6   54.6   52.2  29.958  0.00  0.00     0     0.00      0     0.0  0.00   0.0   0.074   0.000   71.5    58   55.9   71.0  10.69  .0737    0.000   203    7    100.0   10 
 6/22/21  4:50a   54.2   54.3   54.1    98   53.6   0.0   ---   0.00   0.0   ---   54.2   54.5   54.5   52.1  29.962  0.00  0.00     0     0.00      0     0.0  0.00   0.0   0.075   0.000   71.5    58   55.9   71.0  10.69  .0737    0.000   200    7    100.0   10 
 6/22/21  5:00a   54.1   54.2   54.0    98   53.5   0.0   ---   0.00   0.0   ---   54.1   54.4   54.4   52.0  29.959  0.00  0.00     0     0.00      0     0.0  0.00   0.0   0.076   0.000   71.5    58   55.9   71.0  10.69  .0737    0.000   202    7    100.0   10 
 6/22/21  5:10a   54.1   54.1   54.0    98   53.5   0.0   ---   0.00   0.0   ---   54.1   54.4   54.4   52.0  29.960  0.00  0.00     0     0.00      0     0.0  0.00   0.0   0.076   0.000   71.4    58   55.9   70.9  10.69  .0737    0.000   202    7    100.0   10 
 6/22/21  5:20a   54.0   54.1   54.0    98   53.4   0.0     S   0.00   2.0     S   54.0   54.3   54.3   51.9  29.957  0.00  0.00     0     0.00      0     0.0  0.00   0.0   0.076   0.000   71.4    58   55.9   70.9  10.69  .0737    0.000   200    7    100.0   10 
 6/22/21  5:30a   54.2   54.2   54.0    98   53.6   0.0   ---   0.00   0.0   ---   54.2   54.5   54.5   52.1  29.956  0.00  0.00     0     0.00      0     0.0  0.00   0.0   0.075   0.000   71.4    58   55.9   70.9  10.69  .0737    0.000   197    7     99.5   10 
 6/22/21  5:40a   54.5   54.5   54.2    98   53.9   0.0   ---   0.00   0.0   ---   54.5   54.8   54.8   52.4  29.953  0.00  0.00     0     0.00      0     0.0  0.00   0.0   0.073   0.000   71.4    57   55.4   70.8  10.49  .0737    0.000   197    7     99.5   10 
 6/22/21  5:50a   54.5   54.5   54.4    98   53.9   0.0   ---   0.00   0.0   ---   54.5   54.8   54.8   52.4  29.957  0.00  0.00     0     0.00      0     0.0  0.00   0.0   0.073   0.000   71.3    57   55.3   70.6  10.50  .0737    0.000   198    7    100.0   10 
 6/22/21  6:00a   54.5   54.5   54.4    98   53.9   1.0    SE   0.17   2.0     S   54.5   54.8   54.8   52.4  29.953  0.00  0.00     1     0.01      5     0.0  0.00   0.0   0.073   0.000   71.4    57   55.4   70.8  10.49  .0737    0.000   193    7     97.5   10 
 6/22/21  6:10a   54.5   54.5   54.4    98   53.9   0.0    SE   0.00   2.0    SE   54.5   54.8   54.8   52.5  29.955  0.00  0.00     7     0.10     11     0.0  0.00   0.0   0.073   0.000   71.3    57   55.3   70.6  10.50  .0737    0.000   200    7    100.0   10 
 6/22/21  6:20a   54.7   54.7   54.4    98   54.1   1.0    SE   0.17   3.0    SE   54.7   55.0   55.0   52.9  29.952  0.00  0.00    12     0.17     14     0.0  0.00   0.0   0.072   0.000   71.3    57   55.3   70.6  10.50  .0737    0.000   201    7    100.0   10 
 6/22/21  6:30a   55.1   55.1   54.7    99   54.8   1.0    SE   0.17   5.0   ENE   55.1   55.5   55.5   53.5  29.955  0.00  0.00    17     0.24     18     0.0  0.00   0.0   0.069   0.000   71.3    57   55.3   70.6  10.50  .0737    0.000   202    7    100.0   10 
 6/22/21  6:40a   55.0   55.2   55.0    98   54.4   1.0   ENE   0.17   3.0   ENE   55.0   55.3   55.3   53.4  29.953  0.00  0.00    22     0.32     25     0.0  0.00   0.0   0.069   0.000   71.4    57   55.4   70.8  10.49  .0737    0.000   200    7    100.0   10 
 6/22/21  6:50a   55.3   55.3   55.0    98   54.7   1.0   ENE   0.17   3.0   ENE   55.3   55.6   55.6   54.0  29.955  0.00  0.00    31     0.44     35     0.0  0.00   0.0   0.067   0.000   71.3    57   55.3   70.6  10.50  .0737    0.000   195    7     98.5   10 
 6/22/21  7:00a   55.4   55.5   55.2    98   54.8   1.0   ENE   0.17   3.0   ENE   55.4   55.7   55.7   55.3  29.952  0.00  0.00    29     0.42     32     0.0  0.00   0.0   0.067   0.000   71.4    57   55.4   70.8  10.49  .0737    0.000   196    7     99.0   10 
 6/22/21  7:10a   55.3   55.4   55.2    98   54.7   1.0   ENE   0.17   3.0   ENE   55.3   55.6   55.6   55.4  29.951  0.00  0.00    35     0.50     39     0.0  0.00   0.0   0.067   0.000   71.4    57   55.4   70.8  10.49  .0737    0.000   194    7     98.0   10 
 6/22/21  7:20a   55.3   55.3   55.2    98   54.7   1.0   ENE   0.17   3.0   ENE   55.3   55.6   55.6   55.6  29.948  0.00  0.00    40     0.57     42     0.0  0.00   0.0   0.067   0.000   71.4    57   55.4   70.8  10.49  .0737    0.000   199    7    100.0   10 
 6/22/21  7:30a   55.4   55.4   55.2    98   54.8   2.0   ENE   0.33   4.0   ENE   55.4   55.7   55.7   55.9  29.950  0.00  0.00    47     0.67     53     0.0  0.00   0.0   0.067   0.000   71.4    57   55.4   70.8  10.49  .0737    0.000   200    7    100.0   10 
 6/22/21  7:40a   55.5   55.5   55.3    98   54.9   2.0    NE   0.33   4.0   ENE   55.5   55.8   55.8   56.2  29.950  0.00  0.00    53     0.76     54     0.0  0.00   0.0   0.066   0.000   71.4    57   55.4   70.8  10.49  .0737    0.000   200    7    100.0   10 
 6/22/21  7:50a   55.4   55.5   55.4    98   54.8   3.0   ENE   0.50   7.0   ENE   55.4   55.7   55.7   56.2  29.951  0.00  0.00    57     0.82     58     0.0  0.00   0.0   0.067   0.000   71.4    57   55.4   70.8  10.49  .0737    0.000   202    7    100.0   10 
 6/22/21  8:00a   55.6   55.6   55.5    98   55.0   3.0   ENE   0.50   6.0     E   55.6   55.9   55.9   56.5  29.951  0.00  0.00    60     0.86     65     0.0  0.00   0.0   0.065   0.000   71.5    57   55.5   70.9  10.49  .0737    0.001   203    7    100.0   10 
 6/22/21  8:10a   55.8   55.8   55.6    98   55.2   3.0    NE   0.50   5.0   ENE   55.8   56.1   56.1   57.2  29.948  0.00  0.00    76     1.09     88     0.0  0.00   0.0   0.064   0.000   71.5    57   55.5   70.9  10.49  .0737    0.000   199    7    100.0   10 
 6/22/21  8:20a   55.9   56.0   55.8    98   55.3   2.0   ENE   0.33   4.0   ENE   55.9   56.2   56.2   57.7  29.946  0.00  0.00    89     1.28     91     0.0  0.00   0.0   0.063   0.000   71.5    57   55.5   70.9  10.49  .0737    0.000   195    7     98.5   10 
 6/22/21  8:30a   55.9   56.0   55.9    98   55.3   3.0   ENE   0.50   5.0    NE   55.9   56.2   56.2   57.9  29.951  0.00  0.00    98     1.40    114     0.4  0.03   0.5   0.063   0.000   71.6    57   55.6   71.1  10.49  .0737    0.000   197    7     99.5   10 
 6/22/21  8:40a   56.1   56.1   55.9    98   55.5   3.0    NE   0.50   5.0   NNE   56.1   56.4   56.4   58.5  29.951  0.00  0.00   114     1.63    121     0.6  0.04   0.6   0.062   0.000   71.6    57   55.6   71.1  10.49  .0737    0.000   203    7    100.0   10 
 6/22/21  8:50a   56.1   56.1   56.0    98   55.5   3.0     E   0.50   6.0     E   56.1   56.4   56.4   57.9  29.951  0.00  0.00    99     1.42    102     0.5  0.04   0.6   0.062   0.000   71.6    57   55.6   71.1  10.49  .0737    0.000   198    7    100.0   10 
 6/22/21  9:00a   56.2   56.3   56.0    99   55.9   3.0   ENE   0.50   7.0     E   56.2   56.6   56.6   59.1  29.947  0.00  0.00   132     1.89    149     0.8  0.06   0.9   0.061   0.000   71.6    57   55.6   71.1  10.49  .0737    0.002   201    7    100.0   10 
 6/22/21  9:10a   56.5   56.5   56.2    98   55.9   3.0   NNE   0.50   7.0   NNE   56.5   56.8   56.8   60.2  29.948  0.00  0.00   168     2.41    181     1.0  0.07   1.1   0.059   0.000   71.7    57   55.7   71.2  10.48  .0736    0.000   202    7    100.0   10 
Email: AdamSPAM@StormwatchersRetreat.com (To send me email remove the word 'SPAM' from my email address.)